Welcome, MN (56181)

1:45 AM CDT on August 29, 2015 (GMT -0500)
NuWay Coop - Welcome | | Change Station
CLOSE
Current Station
Personal Weather Station
Location: Welcome, MN
Elevation: 1224 ft
Nearby Weather Stations

Elev 1224 ft 43.67 °N, 94.61 °W | Updated 3 minutes ago

Overcast
Overcast
58.5 °F
Feels Like 58.5 °F
N
7.0
Wind Variable Wind from North
Gusts 10.0 mph

Today
High -- | Low -- °F
--% Chance of Precip.
Yesterday
High -- | Low -- °F
Precip. -- in
6:38 AM 7:59 PM
Full, 100% visible
Pressure 30.02 in
Visibility 10.0 miles
Clouds Overcast 800 ft
Dew Point 57 °F
Humidity 94%
Rainfall 0.00 in
Snow Depth Not available.
UV 0 out of 12
Pollen 3.10 out of 12
Air Quality Not available.
Flu Activity Not available.
METAR KFRM 290635Z AUTO 01005KT 10SM OVC008 14/11 A3002 RMK AO1
Pressure 30.02 in
Visibility 10.0 miles
Clouds Overcast 800 ft
Dew Point 57 °F
Humidity 94%
Rainfall 0.00 in
Snow Depth Not available.
UV 0 out of 12
Pollen 3.10 out of 12
Air Quality Not available.
Flu Activity Not available.
METAR KFRM 290635Z AUTO 01005KT 10SM OVC008 14/11 A3002 RMK AO1

10-Day Weather Forecast

×

Almanac

Astronomy

Aug. 29, 2015 Rise Set
Actual Time
Civil Twilight
Nautical Twilight
Astronomical Twilight
Moon
Length of Visible Light
Length of Day
Tomorrow will be .
, % of the Moon is Illuminated

Today's Extremes

State Highs State Lows

Community

WunderPhotos

Upload Photos

1,850,632 photos uploaded!

WunderBlogs® & News

Nearby

Air Quality

  Air Quality AQ Index Pollutant
Not available.

Snow Depth

Station Depth Elevation

Earthquake Activity

City Distance Mag. Time & Date
Minimum magnitude displayed is 2.5.

Coastal Water Temperatures

Place Temperature

Stations

Nearby Weather Stations

Station Location Temp. Windchill Dew Point Humidity Wind Precip. Elev Updated Type